sensor_id;sensor_type;location;lat;lon;timestamp;temperature;humidity
40670;DHT22;26355;45.528;9.234;2023-04-24T00:01:39;17.70;99.90
40670;DHT22;26355;45.528;9.234;2023-04-24T00:04:06;17.60;99.90
40670;DHT22;26355;45.528;9.234;2023-04-24T00:06:32;17.60;99.90
40670;DHT22;26355;45.528;9.234;2023-04-24T00:09:03;17.60;99.90
40670;DHT22;26355;45.528;9.234;2023-04-24T00:11:29;17.70;99.90
40670;DHT22;26355;45.528;9.234;2023-04-24T00:13:56;17.70;99.90
40670;DHT22;26355;45.528;9.234;2023-04-24T00:16:22;17.70;99.90
40670;DHT22;26355;45.528;9.234;2023-04-24T00:18:47;17.70;99.90
40670;DHT22;26355;45.528;9.234;2023-04-24T00:21:14;17.80;99.90
40670;DHT22;26355;45.528;9.234;2023-04-24T00:23:41;17.70;99.90
40670;DHT22;26355;45.528;9.234;2023-04-24T00:26:06;17.70;99.90
40670;DHT22;26355;45.528;9.234;2023-04-24T00:28:32;17.80;99.90
40670;DHT22;26355;45.528;9.234;2023-04-24T00:30:57;17.80;99.90
40670;DHT22;26355;45.528;9.234;2023-04-24T00:33:23;17.80;99.90
40670;DHT22;26355;45.528;9.234;2023-04-24T00:35:49;17.70;99.90
40670;DHT22;26355;45.528;9.234;2023-04-24T00:38:14;17.80;99.90
40670;DHT22;26355;45.528;9.234;2023-04-24T00:40:40;17.70;99.90
40670;DHT22;26355;45.528;9.234;2023-04-24T00:43:05;17.70;99.90
40670;DHT22;26355;45.528;9.234;2023-04-24T00:45:31;17.80;99.90
40670;DHT22;26355;45.528;9.234;2023-04-24T00:47:57;17.70;99.90
40670;DHT22;26355;45.528;9.234;2023-04-24T00:50:24;17.70;99.90
40670;DHT22;26355;45.528;9.234;2023-04-24T00:52:50;17.70;99.90
40670;DHT22;26355;45.528;9.234;2023-04-24T00:55:17;17.70;99.90
40670;DHT22;26355;45.528;9.234;2023-04-24T00:57:43;17.60;99.90
40670;DHT22;26355;45.528;9.234;2023-04-24T01:00:10;17.70;99.90
40670;DHT22;26355;45.528;9.234;2023-04-24T01:02:37;17.60;99.90
40670;DHT22;26355;45.528;9.234;2023-04-24T01:05:06;17.60;99.90
40670;DHT22;26355;45.528;9.234;2023-04-24T01:07:32;17.70;99.90
40670;DHT22;26355;45.528;9.234;2023-04-24T01:09:58;17.60;99.90
40670;DHT22;26355;45.528;9.234;2023-04-24T01:12:24;17.60;99.90
40670;DHT22;26355;45.528;9.234;2023-04-24T01:14:49;17.60;99.90
40670;DHT22;26355;45.528;9.234;2023-04-24T01:17:15;17.60;99.90
40670;DHT22;26355;45.528;9.234;2023-04-24T01:19:41;17.50;99.90
40670;DHT22;26355;45.528;9.234;2023-04-24T01:22:11;17.50;99.90
40670;DHT22;26355;45.528;9.234;2023-04-24T01:24:38;17.30;99.90
40670;DHT22;26355;45.528;9.234;2023-04-24T01:27:04;17.40;99.90
40670;DHT22;26355;45.528;9.234;2023-04-24T01:29:29;17.40;99.90
40670;DHT22;26355;45.528;9.234;2023-04-24T01:31:55;17.50;99.90
40670;DHT22;26355;45.528;9.234;2023-04-24T01:34:21;17.50;99.90
40670;DHT22;26355;45.528;9.234;2023-04-24T01:36:47;17.50;99.90
40670;DHT22;26355;45.528;9.234;2023-04-24T01:39:13;17.40;99.90
40670;DHT22;26355;45.528;9.234;2023-04-24T01:41:40;17.10;99.90
40670;DHT22;26355;45.528;9.234;2023-04-24T01:44:06;17.10;99.90
40670;DHT22;26355;45.528;9.234;2023-04-24T01:46:32;17.10;99.90
40670;DHT22;26355;45.528;9.234;2023-04-24T01:49:00;17.10;99.90
40670;DHT22;26355;45.528;9.234;2023-04-24T01:51:26;17.10;99.90
40670;DHT22;26355;45.528;9.234;2023-04-24T01:53:52;17.00;99.90
40670;DHT22;26355;45.528;9.234;2023-04-24T01:56:20;17.10;99.90
40670;DHT22;26355;45.528;9.234;2023-04-24T01:58:47;17.20;99.90
40670;DHT22;26355;45.528;9.234;2023-04-24T02:01:23;17.10;99.90
40670;DHT22;26355;45.528;9.234;2023-04-24T02:03:49;17.00;99.90
40670;DHT22;26355;45.528;9.234;2023-04-24T02:06:15;16.80;99.90
40670;DHT22;26355;45.528;9.234;2023-04-24T02:08:40;16.90;99.90
40670;DHT22;26355;45.528;9.234;2023-04-24T02:11:06;16.80;99.90
40670;DHT22;26355;45.528;9.234;2023-04-24T02:13:32;16.90;99.90
40670;DHT22;26355;45.528;9.234;2023-04-24T02:16:00;17.00;99.90
40670;DHT22;26355;45.528;9.234;2023-04-24T02:18:26;17.00;99.90
40670;DHT22;26355;45.528;9.234;2023-04-24T02:20:52;17.10;99.90
40670;DHT22;26355;45.528;9.234;2023-04-24T02:23:17;17.10;99.90
40670;DHT22;26355;45.528;9.234;2023-04-24T02:25:43;17.10;99.90
40670;DHT22;26355;45.528;9.234;2023-04-24T02:28:08;17.20;99.90
40670;DHT22;26355;45.528;9.234;2023-04-24T02:30:34;17.20;99.90
40670;DHT22;26355;45.528;9.234;2023-04-24T02:32:59;17.20;99.90
40670;DHT22;26355;45.528;9.234;2023-04-24T02:35:25;17.20;99.90
40670;DHT22;26355;45.528;9.234;2023-04-24T02:37:51;17.30;99.90
40670;DHT22;26355;45.528;9.234;2023-04-24T02:40:16;17.30;99.90
40670;DHT22;26355;45.528;9.234;2023-04-24T02:42:42;17.30;99.90
40670;DHT22;26355;45.528;9.234;2023-04-24T02:45:08;17.30;99.90
40670;DHT22;26355;45.528;9.234;2023-04-24T02:47:33;17.30;99.90
40670;DHT22;26355;45.528;9.234;2023-04-24T02:49:59;17.30;99.90
40670;DHT22;26355;45.528;9.234;2023-04-24T02:52:24;17.30;99.90
40670;DHT22;26355;45.528;9.234;2023-04-24T02:54:50;17.30;99.90
40670;DHT22;26355;45.528;9.234;2023-04-24T02:57:15;17.30;99.90
40670;DHT22;26355;45.528;9.234;2023-04-24T02:59:41;17.30;99.90
40670;DHT22;26355;45.528;9.234;2023-04-24T03:02:06;17.10;99.90
40670;DHT22;26355;45.528;9.234;2023-04-24T03:04:32;17.20;99.90
40670;DHT22;26355;45.528;9.234;2023-04-24T03:06:58;17.20;99.90
40670;DHT22;26355;45.528;9.234;2023-04-24T03:09:24;17.20;99.90
40670;DHT22;26355;45.528;9.234;2023-04-24T03:11:50;17.20;99.90
40670;DHT22;26355;45.528;9.234;2023-04-24T03:14:16;17.20;99.90
40670;DHT22;26355;45.528;9.234;2023-04-24T03:16:42;17.20;99.90
40670;DHT22;26355;45.528;9.234;2023-04-24T03:19:07;17.10;99.90
40670;DHT22;26355;45.528;9.234;2023-04-24T03:21:33;17.10;99.90
40670;DHT22;26355;45.528;9.234;2023-04-24T03:23:58;17.10;99.90
40670;DHT22;26355;45.528;9.234;2023-04-24T03:26:24;17.10;99.90
40670;DHT22;26355;45.528;9.234;2023-04-24T03:28:50;17.10;99.90
40670;DHT22;26355;45.528;9.234;2023-04-24T03:31:15;17.00;99.90
40670;DHT22;26355;45.528;9.234;2023-04-24T03:33:42;17.00;99.90
40670;DHT22;26355;45.528;9.234;2023-04-24T03:36:07;17.00;99.90
40670;DHT22;26355;45.528;9.234;2023-04-24T03:38:33;17.00;99.90
40670;DHT22;26355;45.528;9.234;2023-04-24T03:40:58;16.90;99.90
40670;DHT22;26355;45.528;9.234;2023-04-24T03:43:24;17.10;99.90
40670;DHT22;26355;45.528;9.234;2023-04-24T03:45:50;17.00;99.90
40670;DHT22;26355;45.528;9.234;2023-04-24T03:48:16;16.90;99.90
40670;DHT22;26355;45.528;9.234;2023-04-24T03:50:41;17.00;99.90
40670;DHT22;26355;45.528;9.234;2023-04-24T03:53:07;16.80;99.90
40670;DHT22;26355;45.528;9.234;2023-04-24T03:55:33;16.80;99.90
40670;DHT22;26355;45.528;9.234;2023-04-24T03:57:58;16.80;99.90
40670;DHT22;26355;45.528;9.234;2023-04-24T04:00:24;16.80;99.90
40670;DHT22;26355;45.528;9.234;2023-04-24T04:02:51;16.80;99.90
40670;DHT22;26355;45.528;9.234;2023-04-24T04:05:16;16.80;99.90
40670;DHT22;26355;45.528;9.234;2023-04-24T04:07:42;16.70;99.90
40670;DHT22;26355;45.528;9.234;2023-04-24T04:10:08;16.60;99.90
40670;DHT22;26355;45.528;9.234;2023-04-24T04:12:33;16.70;99.90
40670;DHT22;26355;45.528;9.234;2023-04-24T04:14:59;16.70;99.90
40670;DHT22;26355;45.528;9.234;2023-04-24T04:17:25;16.70;99.90
40670;DHT22;26355;45.528;9.234;2023-04-24T04:19:51;16.70;99.90
40670;DHT22;26355;45.528;9.234;2023-04-24T04:22:16;16.70;99.90
40670;DHT22;26355;45.528;9.234;2023-04-24T04:24:42;16.70;99.90
40670;DHT22;26355;45.528;9.234;2023-04-24T04:27:08;16.70;99.90
40670;DHT22;26355;45.528;9.234;2023-04-24T04:29:34;16.50;99.90
40670;DHT22;26355;45.528;9.234;2023-04-24T04:32:01;16.60;99.90
40670;DHT22;26355;45.528;9.234;2023-04-24T04:34:27;16.50;99.90
40670;DHT22;26355;45.528;9.234;2023-04-24T04:36:53;16.50;99.90
40670;DHT22;26355;45.528;9.234;2023-04-24T04:39:18;16.50;99.90
40670;DHT22;26355;45.528;9.234;2023-04-24T04:41:45;16.60;99.90
40670;DHT22;26355;45.528;9.234;2023-04-24T04:44:14;16.50;99.90
40670;DHT22;26355;45.528;9.234;2023-04-24T04:46:40;16.50;99.90
40670;DHT22;26355;45.528;9.234;2023-04-24T04:49:07;16.60;99.90
40670;DHT22;26355;45.528;9.234;2023-04-24T04:51:34;16.50;99.90
40670;DHT22;26355;45.528;9.234;2023-04-24T04:53:59;16.60;99.90
40670;DHT22;26355;45.528;9.234;2023-04-24T04:56:26;16.50;99.90
40670;DHT22;26355;45.528;9.234;2023-04-24T04:58:52;16.60;99.90
40670;DHT22;26355;45.528;9.234;2023-04-24T05:01:17;16.60;99.90
40670;DHT22;26355;45.528;9.234;2023-04-24T05:03:43;16.50;99.90
40670;DHT22;26355;45.528;9.234;2023-04-24T05:06:08;16.60;99.90
40670;DHT22;26355;45.528;9.234;2023-04-24T05:08:34;16.50;99.90
40670;DHT22;26355;45.528;9.234;2023-04-24T05:10:59;16.40;99.90
40670;DHT22;26355;45.528;9.234;2023-04-24T05:13:25;16.50;99.90
40670;DHT22;26355;45.528;9.234;2023-04-24T05:15:51;16.50;99.90
40670;DHT22;26355;45.528;9.234;2023-04-24T05:18:17;16.40;99.90
40670;DHT22;26355;45.528;9.234;2023-04-24T05:20:42;16.50;99.90
40670;DHT22;26355;45.528;9.234;2023-04-24T05:23:09;16.50;99.90
40670;DHT22;26355;45.528;9.234;2023-04-24T05:25:35;16.40;99.90
40670;DHT22;26355;45.528;9.234;2023-04-24T05:28:01;16.60;99.90
40670;DHT22;26355;45.528;9.234;2023-04-24T05:30:27;16.50;99.90
40670;DHT22;26355;45.528;9.234;2023-04-24T05:32:52;16.60;99.90
40670;DHT22;26355;45.528;9.234;2023-04-24T05:35:18;16.60;99.90
40670;DHT22;26355;45.528;9.234;2023-04-24T05:37:44;16.60;99.90
40670;DHT22;26355;45.528;9.234;2023-04-24T05:40:10;16.60;99.90
40670;DHT22;26355;45.528;9.234;2023-04-24T05:42:36;16.60;99.90
40670;DHT22;26355;45.528;9.234;2023-04-24T05:45:02;16.80;99.90
40670;DHT22;26355;45.528;9.234;2023-04-24T05:47:28;16.60;99.90
40670;DHT22;26355;45.528;9.234;2023-04-24T05:49:53;16.60;99.90
40670;DHT22;26355;45.528;9.234;2023-04-24T05:52:19;16.50;99.90
40670;DHT22;26355;45.528;9.234;2023-04-24T05:54:45;16.60;99.90
40670;DHT22;26355;45.528;9.234;2023-04-24T05:57:11;16.70;99.90
40670;DHT22;26355;45.528;9.234;2023-04-24T05:59:37;16.70;99.90
40670;DHT22;26355;45.528;9.234;2023-04-24T06:02:06;16.80;99.90
40670;DHT22;26355;45.528;9.234;2023-04-24T06:04:32;16.70;99.90
40670;DHT22;26355;45.528;9.234;2023-04-24T06:06:59;16.90;99.90
40670;DHT22;26355;45.528;9.234;2023-04-24T06:09:25;17.00;99.90
40670;DHT22;26355;45.528;9.234;2023-04-24T06:11:51;17.20;99.90
40670;DHT22;26355;45.528;9.234;2023-04-24T06:14:18;17.60;99.90
40670;DHT22;26355;45.528;9.234;2023-04-24T06:16:44;17.90;99.90
40670;DHT22;26355;45.528;9.234;2023-04-24T06:19:10;18.30;99.90
40670;DHT22;26355;45.528;9.234;2023-04-24T06:21:35;18.50;99.90
40670;DHT22;26355;45.528;9.234;2023-04-24T06:24:01;18.80;99.90
40670;DHT22;26355;45.528;9.234;2023-04-24T06:26:27;19.00;99.90
40670;DHT22;26355;45.528;9.234;2023-04-24T06:28:53;19.30;99.90
40670;DHT22;26355;45.528;9.234;2023-04-24T06:31:23;19.70;99.90
40670;DHT22;26355;45.528;9.234;2023-04-24T06:33:49;19.90;99.90
40670;DHT22;26355;45.528;9.234;2023-04-24T06:36:15;20.10;99.90
40670;DHT22;26355;45.528;9.234;2023-04-24T06:38:41;20.20;99.90
40670;DHT22;26355;45.528;9.234;2023-04-24T06:41:06;20.20;99.90
40670;DHT22;26355;45.528;9.234;2023-04-24T06:43:32;20.10;99.90
40670;DHT22;26355;45.528;9.234;2023-04-24T06:45:59;20.20;99.90
40670;DHT22;26355;45.528;9.234;2023-04-24T06:48:25;20.40;99.90
40670;DHT22;26355;45.528;9.234;2023-04-24T06:50:51;20.50;99.90
40670;DHT22;26355;45.528;9.234;2023-04-24T06:53:17;20.70;99.90
40670;DHT22;26355;45.528;9.234;2023-04-24T06:55:43;20.70;99.90
40670;DHT22;26355;45.528;9.234;2023-04-24T06:58:10;20.80;99.90
40670;DHT22;26355;45.528;9.234;2023-04-24T07:00:36;20.90;99.90
40670;DHT22;26355;45.528;9.234;2023-04-24T07:03:01;20.90;99.90
40670;DHT22;26355;45.528;9.234;2023-04-24T07:05:27;21.10;99.90
40670;DHT22;26355;45.528;9.234;2023-04-24T07:07:53;21.10;99.90
40670;DHT22;26355;45.528;9.234;2023-04-24T07:10:19;21.20;99.90
40670;DHT22;26355;45.528;9.234;2023-04-24T07:12:45;21.20;99.90
40670;DHT22;26355;45.528;9.234;2023-04-24T07:15:12;21.10;99.90
40670;DHT22;26355;45.528;9.234;2023-04-24T07:17:37;21.00;99.90
40670;DHT22;26355;45.528;9.234;2023-04-24T07:20:04;21.20;99.90
40670;DHT22;26355;45.528;9.234;2023-04-24T07:22:31;21.30;99.90
40670;DHT22;26355;45.528;9.234;2023-04-24T07:24:56;21.40;99.90
40670;DHT22;26355;45.528;9.234;2023-04-24T07:27:22;21.50;99.90
40670;DHT22;26355;45.528;9.234;2023-04-24T07:29:47;21.60;99.90
40670;DHT22;26355;45.528;9.234;2023-04-24T07:32:13;21.60;99.90
40670;DHT22;26355;45.528;9.234;2023-04-24T07:34:39;21.70;99.90
40670;DHT22;26355;45.528;9.234;2023-04-24T07:37:05;21.70;99.90
40670;DHT22;26355;45.528;9.234;2023-04-24T07:39:31;21.50;99.90
40670;DHT22;26355;45.528;9.234;2023-04-24T07:41:57;21.40;99.90
40670;DHT22;26355;45.528;9.234;2023-04-24T07:44:24;21.40;99.90
40670;DHT22;26355;45.528;9.234;2023-04-24T07:46:50;21.40;99.90
40670;DHT22;26355;45.528;9.234;2023-04-24T07:49:15;21.40;99.90
40670;DHT22;26355;45.528;9.234;2023-04-24T07:51:41;21.50;99.90
40670;DHT22;26355;45.528;9.234;2023-04-24T07:54:07;21.50;99.90
40670;DHT22;26355;45.528;9.234;2023-04-24T07:56:33;21.50;99.90
40670;DHT22;26355;45.528;9.234;2023-04-24T07:58:58;21.30;99.90
40670;DHT22;26355;45.528;9.234;2023-04-24T08:01:25;21.20;99.90
40670;DHT22;26355;45.528;9.234;2023-04-24T08:03:51;21.30;99.90
40670;DHT22;26355;45.528;9.234;2023-04-24T08:06:16;21.30;99.90
40670;DHT22;26355;45.528;9.234;2023-04-24T08:08:42;21.30;99.90
40670;DHT22;26355;45.528;9.234;2023-04-24T08:11:08;21.20;99.90
40670;DHT22;26355;45.528;9.234;2023-04-24T08:13:33;21.30;99.90
40670;DHT22;26355;45.528;9.234;2023-04-24T08:15:59;21.20;99.90
40670;DHT22;26355;45.528;9.234;2023-04-24T08:18:25;21.20;99.90
40670;DHT22;26355;45.528;9.234;2023-04-24T08:20:51;21.30;99.90
40670;DHT22;26355;45.528;9.234;2023-04-24T08:23:17;21.30;99.90
40670;DHT22;26355;45.528;9.234;2023-04-24T08:25:42;21.30;99.90
40670;DHT22;26355;45.528;9.234;2023-04-24T08:28:09;21.30;99.90
40670;DHT22;26355;45.528;9.234;2023-04-24T08:30:35;21.40;99.90
40670;DHT22;26355;45.528;9.234;2023-04-24T08:33:00;21.30;99.90
40670;DHT22;26355;45.528;9.234;2023-04-24T08:35:26;21.60;99.90
40670;DHT22;26355;45.528;9.234;2023-04-24T08:37:52;21.70;99.90
40670;DHT22;26355;45.528;9.234;2023-04-24T08:40:25;21.60;99.90
40670;DHT22;26355;45.528;9.234;2023-04-24T08:42:53;21.60;99.90
40670;DHT22;26355;45.528;9.234;2023-04-24T08:45:20;21.60;99.90
40670;DHT22;26355;45.528;9.234;2023-04-24T08:47:46;21.50;99.90
40670;DHT22;26355;45.528;9.234;2023-04-24T08:50:12;21.60;99.90
40670;DHT22;26355;45.528;9.234;2023-04-24T08:52:38;21.60;99.90
40670;DHT22;26355;45.528;9.234;2023-04-24T08:55:04;21.80;99.90
40670;DHT22;26355;45.528;9.234;2023-04-24T08:57:31;21.90;99.90
40670;DHT22;26355;45.528;9.234;2023-04-24T08:59:58;21.70;99.90
40670;DHT22;26355;45.528;9.234;2023-04-24T09:02:25;21.50;99.90
40670;DHT22;26355;45.528;9.234;2023-04-24T09:04:51;21.30;99.90
40670;DHT22;26355;45.528;9.234;2023-04-24T09:07:19;21.00;99.90
40670;DHT22;26355;45.528;9.234;2023-04-24T09:09:45;21.10;99.90
40670;DHT22;26355;45.528;9.234;2023-04-24T09:12:11;21.20;99.90
40670;DHT22;26355;45.528;9.234;2023-04-24T09:14:37;21.20;99.90
40670;DHT22;26355;45.528;9.234;2023-04-24T09:17:10;21.20;99.90
40670;DHT22;26355;45.528;9.234;2023-04-24T09:19:36;21.20;99.90
40670;DHT22;26355;45.528;9.234;2023-04-24T09:22:05;21.40;99.90
40670;DHT22;26355;45.528;9.234;2023-04-24T09:24:32;21.50;99.90
40670;DHT22;26355;45.528;9.234;2023-04-24T09:26:58;21.40;99.90
40670;DHT22;26355;45.528;9.234;2023-04-24T09:29:24;21.40;99.90
40670;DHT22;26355;45.528;9.234;2023-04-24T09:31:50;21.60;99.90
40670;DHT22;26355;45.528;9.234;2023-04-24T09:34:21;21.60;99.90
40670;DHT22;26355;45.528;9.234;2023-04-24T09:37:06;21.70;99.90
40670;DHT22;26355;45.528;9.234;2023-04-24T09:39:32;21.60;99.60
40670;DHT22;26355;45.528;9.234;2023-04-24T09:42:01;21.50;99.80
40670;DHT22;26355;45.528;9.234;2023-04-24T09:44:28;21.50;99.90
40670;DHT22;26355;45.528;9.234;2023-04-24T09:46:56;21.70;99.90
40670;DHT22;26355;45.528;9.234;2023-04-24T09:51:48;22.00;99.90
40670;DHT22;26355;45.528;9.234;2023-04-24T09:54:18;21.90;99.90
40670;DHT22;26355;45.528;9.234;2023-04-24T09:56:47;21.80;99.90
40670;DHT22;26355;45.528;9.234;2023-04-24T09:59:14;21.90;99.90
40670;DHT22;26355;45.528;9.234;2023-04-24T10:01:41;22.00;99.90
40670;DHT22;26355;45.528;9.234;2023-04-24T10:04:22;22.10;99.90
40670;DHT22;26355;45.528;9.234;2023-04-24T10:06:49;21.90;99.80
40670;DHT22;26355;45.528;9.234;2023-04-24T10:09:20;21.80;99.90
40670;DHT22;26355;45.528;9.234;2023-04-24T10:11:48;22.10;99.90
40670;DHT22;26355;45.528;9.234;2023-04-24T10:14:19;22.30;99.90
40670;DHT22;26355;45.528;9.234;2023-04-24T10:16:46;22.40;99.90
40670;DHT22;26355;45.528;9.234;2023-04-24T10:19:16;22.20;99.90
40670;DHT22;26355;45.528;9.234;2023-04-24T10:21:44;22.30;99.90
40670;DHT22;26355;45.528;9.234;2023-04-24T10:24:14;22.40;99.90
40670;DHT22;26355;45.528;9.234;2023-04-24T10:26:41;22.60;99.90
40670;DHT22;26355;45.528;9.234;2023-04-24T10:29:06;22.60;99.90
40670;DHT22;26355;45.528;9.234;2023-04-24T10:31:36;22.80;99.90
40670;DHT22;26355;45.528;9.234;2023-04-24T10:34:02;22.70;99.80
40670;DHT22;26355;45.528;9.234;2023-04-24T10:36:30;22.60;99.90
40670;DHT22;26355;45.528;9.234;2023-04-24T10:39:00;22.70;99.90
40670;DHT22;26355;45.528;9.234;2023-04-24T10:41:26;22.70;99.10
40670;DHT22;26355;45.528;9.234;2023-04-24T10:44:05;22.70;99.30
40670;DHT22;26355;45.528;9.234;2023-04-24T10:46:31;22.90;99.00
40670;DHT22;26355;45.528;9.234;2023-04-24T10:48:57;23.10;99.20
40670;DHT22;26355;45.528;9.234;2023-04-24T10:51:24;23.10;99.10
40670;DHT22;26355;45.528;9.234;2023-04-24T10:53:51;23.20;99.20
40670;DHT22;26355;45.528;9.234;2023-04-24T10:56:17;23.30;99.10
40670;DHT22;26355;45.528;9.234;2023-04-24T10:58:44;23.40;98.80
40670;DHT22;26355;45.528;9.234;2023-04-24T11:01:28;23.30;98.70
40670;DHT22;26355;45.528;9.234;2023-04-24T11:03:56;23.40;98.20
40670;DHT22;26355;45.528;9.234;2023-04-24T11:06:33;23.50;97.90
40670;DHT22;26355;45.528;9.234;2023-04-24T11:09:10;23.40;96.80
40670;DHT22;26355;45.528;9.234;2023-04-24T11:11:44;23.50;97.30
40670;DHT22;26355;45.528;9.234;2023-04-24T11:14:10;23.40;96.50
40670;DHT22;26355;45.528;9.234;2023-04-24T11:16:45;23.50;97.40
40670;DHT22;26355;45.528;9.234;2023-04-24T11:22:01;23.40;95.40
40670;DHT22;26355;45.528;9.234;2023-04-24T11:27:04;23.50;96.40
40670;DHT22;26355;45.528;9.234;2023-04-24T11:29:47;23.60;95.70
40670;DHT22;26355;45.528;9.234;2023-04-24T11:34:56;23.70;95.50
40670;DHT22;26355;45.528;9.234;2023-04-24T11:37:23;23.60;96.00
40670;DHT22;26355;45.528;9.234;2023-04-24T11:39:58;23.70;96.80
40670;DHT22;26355;45.528;9.234;2023-04-24T11:42:24;23.70;96.60
40670;DHT22;26355;45.528;9.234;2023-04-24T11:44:54;23.80;96.40
40670;DHT22;26355;45.528;9.234;2023-04-24T11:47:31;23.80;95.80
40670;DHT22;26355;45.528;9.234;2023-04-24T11:49:59;23.70;95.20
40670;DHT22;26355;45.528;9.234;2023-04-24T11:52:26;23.80;95.90
40670;DHT22;26355;45.528;9.234;2023-04-24T11:54:51;23.90;95.60
40670;DHT22;26355;45.528;9.234;2023-04-24T11:57:19;24.00;95.40
40670;DHT22;26355;45.528;9.234;2023-04-24T11:59:46;24.00;95.10
40670;DHT22;26355;45.528;9.234;2023-04-24T12:02:25;24.20;95.60
40670;DHT22;26355;45.528;9.234;2023-04-24T12:04:52;24.20;96.00
40670;DHT22;26355;45.528;9.234;2023-04-24T12:07:18;24.30;95.50
40670;DHT22;26355;45.528;9.234;2023-04-24T12:09:44;24.30;95.20
40670;DHT22;26355;45.528;9.234;2023-04-24T12:12:12;24.10;94.60
40670;DHT22;26355;45.528;9.234;2023-04-24T12:14:49;24.00;95.40
40670;DHT22;26355;45.528;9.234;2023-04-24T12:17:17;24.20;96.20
40670;DHT22;26355;45.528;9.234;2023-04-24T12:19:46;24.30;95.30
40670;DHT22;26355;45.528;9.234;2023-04-24T12:22:12;24.20;95.10
40670;DHT22;26355;45.528;9.234;2023-04-24T12:25:17;24.10;94.90
40670;DHT22;26355;45.528;9.234;2023-04-24T12:27:44;24.00;94.60
40670;DHT22;26355;45.528;9.234;2023-04-24T12:30:13;24.00;94.90
40670;DHT22;26355;45.528;9.234;2023-04-24T12:32:47;24.10;94.60
40670;DHT22;26355;45.528;9.234;2023-04-24T12:35:20;24.30;94.50
40670;DHT22;26355;45.528;9.234;2023-04-24T12:37:46;24.30;94.40
40670;DHT22;26355;45.528;9.234;2023-04-24T12:40:12;24.40;94.50
40670;DHT22;26355;45.528;9.234;2023-04-24T12:42:56;24.50;94.00
40670;DHT22;26355;45.528;9.234;2023-04-24T12:45:22;24.70;93.70
40670;DHT22;26355;45.528;9.234;2023-04-24T12:47:49;24.70;94.20
40670;DHT22;26355;45.528;9.234;2023-04-24T12:50:15;24.90;93.60
40670;DHT22;26355;45.528;9.234;2023-04-24T12:52:42;24.80;92.90
40670;DHT22;26355;45.528;9.234;2023-04-24T12:55:08;24.80;92.60
40670;DHT22;26355;45.528;9.234;2023-04-24T12:57:34;24.80;92.90
40670;DHT22;26355;45.528;9.234;2023-04-24T13:00:00;24.90;92.30
40670;DHT22;26355;45.528;9.234;2023-04-24T13:02:28;25.00;91.90
40670;DHT22;26355;45.528;9.234;2023-04-24T13:04:58;25.00;91.50
40670;DHT22;26355;45.528;9.234;2023-04-24T13:07:24;24.80;91.80
40670;DHT22;26355;45.528;9.234;2023-04-24T13:09:51;24.90;92.10
40670;DHT22;26355;45.528;9.234;2023-04-24T13:12:17;24.90;92.10
40670;DHT22;26355;45.528;9.234;2023-04-24T13:14:43;24.90;90.90
40670;DHT22;26355;45.528;9.234;2023-04-24T13:17:08;24.90;91.10
40670;DHT22;26355;45.528;9.234;2023-04-24T13:19:41;25.00;91.50
40670;DHT22;26355;45.528;9.234;2023-04-24T13:22:08;25.20;91.10
40670;DHT22;26355;45.528;9.234;2023-04-24T13:24:34;25.10;90.10
40670;DHT22;26355;45.528;9.234;2023-04-24T13:27:00;25.00;88.60
40670;DHT22;26355;45.528;9.234;2023-04-24T13:29:26;25.20;90.90
40670;DHT22;26355;45.528;9.234;2023-04-24T13:31:53;25.20;89.80
40670;DHT22;26355;45.528;9.234;2023-04-24T13:34:23;25.10;88.90
40670;DHT22;26355;45.528;9.234;2023-04-24T13:36:50;25.10;88.50
40670;DHT22;26355;45.528;9.234;2023-04-24T13:39:16;25.00;88.30
40670;DHT22;26355;45.528;9.234;2023-04-24T13:41:42;25.20;87.90
40670;DHT22;26355;45.528;9.234;2023-04-24T13:44:08;25.30;85.40
40670;DHT22;26355;45.528;9.234;2023-04-24T13:46:34;25.20;81.10
40670;DHT22;26355;45.528;9.234;2023-04-24T13:48:59;25.30;79.10
40670;DHT22;26355;45.528;9.234;2023-04-24T13:51:26;25.30;78.90
40670;DHT22;26355;45.528;9.234;2023-04-24T13:53:54;25.40;78.60
40670;DHT22;26355;45.528;9.234;2023-04-24T13:56:20;25.40;78.80
40670;DHT22;26355;45.528;9.234;2023-04-24T13:58:46;25.50;78.40
40670;DHT22;26355;45.528;9.234;2023-04-24T14:01:12;25.30;77.50
40670;DHT22;26355;45.528;9.234;2023-04-24T14:03:38;25.40;74.00
40670;DHT22;26355;45.528;9.234;2023-04-24T14:06:04;25.40;70.80
40670;DHT22;26355;45.528;9.234;2023-04-24T14:08:30;25.40;71.10
40670;DHT22;26355;45.528;9.234;2023-04-24T14:10:55;25.40;71.10
40670;DHT22;26355;45.528;9.234;2023-04-24T14:13:21;25.30;69.30
40670;DHT22;26355;45.528;9.234;2023-04-24T14:15:46;25.30;69.80
40670;DHT22;26355;45.528;9.234;2023-04-24T14:18:12;25.20;69.60
40670;DHT22;26355;45.528;9.234;2023-04-24T14:20:38;25.30;70.90
40670;DHT22;26355;45.528;9.234;2023-04-24T14:23:04;25.40;70.40
40670;DHT22;26355;45.528;9.234;2023-04-24T14:25:30;25.40;69.20
40670;DHT22;26355;45.528;9.234;2023-04-24T14:27:55;25.40;70.10
40670;DHT22;26355;45.528;9.234;2023-04-24T14:30:21;25.40;70.10
40670;DHT22;26355;45.528;9.234;2023-04-24T14:32:47;25.40;69.00
40670;DHT22;26355;45.528;9.234;2023-04-24T14:35:13;25.40;67.70
40670;DHT22;26355;45.528;9.234;2023-04-24T14:37:40;25.30;66.30
40670;DHT22;26355;45.528;9.234;2023-04-24T14:40:09;25.30;67.50
40670;DHT22;26355;45.528;9.234;2023-04-24T14:42:35;25.30;67.20
40670;DHT22;26355;45.528;9.234;2023-04-24T14:45:01;25.30;67.00
40670;DHT22;26355;45.528;9.234;2023-04-24T14:47:27;25.30;66.60
40670;DHT22;26355;45.528;9.234;2023-04-24T14:49:52;25.30;67.50
40670;DHT22;26355;45.528;9.234;2023-04-24T14:52:18;25.20;64.70
40670;DHT22;26355;45.528;9.234;2023-04-24T14:54:44;25.00;65.30
40670;DHT22;26355;45.528;9.234;2023-04-24T14:57:09;25.00;65.70
40670;DHT22;26355;45.528;9.234;2023-04-24T14:59:35;25.00;65.00
40670;DHT22;26355;45.528;9.234;2023-04-24T15:02:01;25.00;65.50
40670;DHT22;26355;45.528;9.234;2023-04-24T15:04:27;24.90;64.80
40670;DHT22;26355;45.528;9.234;2023-04-24T15:06:54;24.80;64.90
40670;DHT22;26355;45.528;9.234;2023-04-24T15:09:21;24.90;65.80
40670;DHT22;26355;45.528;9.234;2023-04-24T15:11:47;24.90;66.20
40670;DHT22;26355;45.528;9.234;2023-04-24T15:14:14;25.00;65.80
40670;DHT22;26355;45.528;9.234;2023-04-24T15:16:40;25.10;66.20
40670;DHT22;26355;45.528;9.234;2023-04-24T15:19:05;25.10;65.70
40670;DHT22;26355;45.528;9.234;2023-04-24T15:21:31;25.10;65.50
40670;DHT22;26355;45.528;9.234;2023-04-24T15:23:57;25.10;65.80
40670;DHT22;26355;45.528;9.234;2023-04-24T15:26:23;25.10;65.70
40670;DHT22;26355;45.528;9.234;2023-04-24T15:28:49;25.00;64.90
40670;DHT22;26355;45.528;9.234;2023-04-24T15:31:17;25.00;65.30
40670;DHT22;26355;45.528;9.234;2023-04-24T15:33:42;24.90;63.90
40670;DHT22;26355;45.528;9.234;2023-04-24T15:36:08;25.00;64.20
40670;DHT22;26355;45.528;9.234;2023-04-24T15:38:33;25.00;64.40